createdAt,value
2018-11-27T00:19:44.296Z,4.52
2018-11-27T00:24:01.387Z,4.66
2018-11-27T00:28:19.077Z,4.63
2018-11-27T00:32:30.897Z,4.51
2018-11-27T00:36:47.202Z,4.53
2018-11-27T00:41:02.257Z,4.55
2018-11-27T00:45:18.169Z,4.37
2018-11-27T00:49:35.339Z,4.39
2018-11-27T00:53:46.959Z,4.52
2018-11-27T00:58:00.232Z,4.64
2018-11-27T01:02:10.808Z,4.52
2018-11-27T01:06:21.008Z,4.47
2018-11-27T01:10:31.375Z,4.58
2018-11-27T01:14:46.784Z,4.63
2018-11-27T01:19:04.593Z,4.56
2018-11-27T01:23:16.561Z,4.45
2018-11-27T01:27:29.295Z,4.46
2018-11-27T01:31:41.837Z,4.36
2018-11-27T01:35:53.944Z,4.42
2018-11-27T01:40:06.182Z,4.36
2018-11-27T01:44:17.867Z,4.30
2018-11-27T01:48:28.557Z,4.36
2018-11-27T01:52:37.420Z,4.35
2018-11-27T01:56:49.136Z,4.25
2018-11-27T02:01:01.754Z,4.18
2018-11-27T02:05:12.847Z,4.31
2018-11-27T02:09:21.940Z,4.47
2018-11-27T02:13:34.543Z,4.36
2018-11-27T02:17:44.502Z,4.29
2018-11-27T02:21:59.803Z,4.19
2018-11-27T02:26:11.860Z,4.28
2018-11-27T02:30:20.788Z,4.35
2018-11-27T02:34:29.683Z,4.42
2018-11-27T02:38:43.119Z,4.44
2018-11-27T02:42:50.683Z,4.28
2018-11-27T02:47:01.878Z,4.22
2018-11-27T02:51:12.007Z,4.15
2018-11-27T02:55:23.980Z,4.22
2018-11-27T02:59:34.236Z,4.23
2018-11-27T03:03:46.131Z,4.16
2018-11-27T03:07:58.871Z,4.06
2018-11-27T03:12:10.511Z,3.84
2018-11-27T03:16:22.465Z,3.89
2018-11-27T03:20:34.963Z,3.81
2018-11-27T03:24:45.050Z,3.96
2018-11-27T03:28:54.385Z,3.82
2018-11-27T03:33:09.707Z,3.82
2018-11-27T03:37:23.176Z,3.81
2018-11-27T03:41:33.967Z,3.75
2018-11-27T03:45:40.778Z,3.75
2018-11-27T03:49:50.559Z,3.78
2018-11-27T03:54:06.356Z,3.75
2018-11-27T03:58:35.095Z,3.70
2018-11-27T04:02:49.422Z,3.67
2018-11-27T04:06:55.988Z,3.82
2018-11-27T04:11:06.065Z,3.84
2018-11-27T04:15:17.320Z,3.84
2018-11-27T04:19:25.949Z,3.87
2018-11-27T04:23:41.659Z,3.87
2018-11-27T04:27:54.835Z,4.00
2018-11-27T04:32:03.066Z,3.99
2018-11-27T04:36:12.448Z,3.92
2018-11-27T04:40:24.721Z,3.99
2018-11-27T04:44:38.578Z,3.99
2018-11-27T04:48:51.440Z,4.06
2018-11-27T04:53:00.618Z,4.14
2018-11-27T04:57:16.569Z,4.19
2018-11-27T05:01:24.847Z,4.21
2018-11-27T05:05:35.407Z,4.14
2018-11-27T05:09:53.015Z,4.15
2018-11-27T05:14:06.378Z,4.11
2018-11-27T05:18:17.703Z,4.03
2018-11-27T05:22:27.911Z,4.17
2018-11-27T05:26:39.063Z,4.08
2018-11-27T05:30:54.364Z,4.14
2018-11-27T05:35:07.094Z,4.33
2018-11-27T05:39:18.090Z,4.10
2018-11-27T05:43:28.967Z,3.93
2018-11-27T05:47:41.654Z,3.91
2018-11-27T05:51:56.017Z,3.80
2018-11-27T05:56:06.871Z,3.89
2018-11-27T06:00:22.047Z,4.03
2018-11-27T06:04:29.584Z,3.95
2018-11-27T06:08:38.178Z,3.87
2018-11-27T06:12:48.048Z,3.92
2018-11-27T06:17:02.602Z,3.90
2018-11-27T06:21:13.711Z,3.90
2018-11-27T06:25:32.079Z,3.86
2018-11-27T06:29:46.731Z,3.91
2018-11-27T06:33:59.335Z,3.78
2018-11-27T06:38:08.886Z,3.88
2018-11-27T06:42:21.446Z,4.03
2018-11-27T06:46:34.857Z,3.97
2018-11-27T06:50:48.468Z,4.05
2018-11-27T06:55:09.455Z,4.15
2018-11-27T06:59:20.979Z,4.03
2018-11-27T07:03:40.369Z,4.13
2018-11-27T07:07:49.302Z,4.16
2018-11-27T07:12:00.589Z,4.05
2018-11-27T07:16:16.404Z,4.11
2018-11-27T07:20:28.165Z,4.10
2018-11-27T07:24:36.776Z,4.01
2018-11-27T07:28:48.471Z,3.98
2018-11-27T07:32:56.169Z,4.02
2018-11-27T07:41:36.177Z,4.04
2018-11-27T07:45:55.147Z,4.23
2018-11-27T07:50:02.973Z,4.10
2018-11-27T07:54:16.013Z,4.09
2018-11-27T07:58:31.287Z,4.17
2018-11-27T08:02:42.372Z,4.17
2018-11-27T08:06:51.556Z,4.36
2018-11-27T08:10:59.311Z,4.37
2018-11-27T08:15:15.948Z,4.36
2018-11-27T08:19:25.299Z,4.22
2018-11-27T08:23:32.993Z,4.36
2018-11-27T08:27:47.523Z,4.35
2018-11-27T08:31:59.827Z,4.33
2018-11-27T08:36:07.498Z,4.29
2018-11-27T08:40:27.467Z,4.42
2018-11-27T08:44:39.149Z,4.41
2018-11-27T08:48:46.897Z,4.34
2018-11-27T08:53:06.924Z,4.31
2018-11-27T08:57:17.800Z,4.39
2018-11-27T09:01:32.168Z,4.45
2018-11-27T09:05:42.404Z,4.46
2018-11-27T09:09:54.191Z,4.65
2018-11-27T09:14:10.434Z,4.70
2018-11-27T09:18:24.460Z,4.88
2018-11-27T09:22:37.893Z,4.96
2018-11-27T09:26:48.742Z,4.99
2018-11-27T09:31:01.403Z,5.07
2018-11-27T09:35:14.200Z,5.24
2018-11-27T09:39:21.486Z,5.39
2018-11-27T09:43:31.592Z,5.15
2018-11-27T09:47:46.020Z,5.22
2018-11-27T09:52:00.646Z,5.41
2018-11-27T09:56:15.058Z,5.40
2018-11-27T10:00:31.786Z,5.50
2018-11-27T10:04:49.833Z,5.64
2018-11-27T10:09:03.369Z,5.91
2018-11-27T10:13:12.372Z,5.69
2018-11-27T10:17:30.599Z,5.71
2018-11-27T10:21:40.455Z,5.71
2018-11-27T10:25:52.334Z,5.47
2018-11-27T10:30:04.953Z,5.73
2018-11-27T10:34:16.674Z,5.79
2018-11-27T10:38:26.415Z,5.65
2018-11-27T10:42:36.862Z,5.82
2018-11-27T10:46:48.330Z,5.96
2018-11-27T10:51:01.763Z,5.77
2018-11-27T10:55:11.313Z,6.25
2018-11-27T10:59:22.127Z,6.48
2018-11-27T11:03:37.518Z,6.44
2018-11-27T11:07:50.108Z,6.36
2018-11-27T11:12:04.924Z,6.33
2018-11-27T11:16:16.787Z,6.13
2018-11-27T11:20:35.493Z,6.66
2018-11-27T11:24:54.385Z,6.78
2018-11-27T11:29:13.461Z,7.50
2018-11-27T11:33:35.442Z,7.51
2018-11-27T11:37:47.477Z,7.73
2018-11-27T11:41:56.205Z,8.57
2018-11-27T11:46:06.928Z,8.26
2018-11-27T11:50:27.916Z,8.73
2018-11-27T11:54:40.534Z,9.43
2018-11-27T11:59:01.234Z,10.08
2018-11-27T12:03:11.724Z,10.97
2018-11-27T12:07:24.560Z,11.27
2018-11-27T12:11:31.646Z,11.31
2018-11-27T12:15:44.413Z,10.73
2018-11-27T12:19:54.318Z,11.76
2018-11-27T12:24:02.743Z,12.20
2018-11-27T12:28:19.827Z,10.82
2018-11-27T12:32:35.421Z,10.19
2018-11-27T12:36:46.424Z,9.80
2018-11-27T12:40:56.360Z,9.94
2018-11-27T12:45:08.041Z,9.26
2018-11-27T12:49:21.512Z,9.70
2018-11-27T12:53:32.462Z,9.18
2018-11-27T12:57:45.026Z,8.48
2018-11-27T13:01:56.646Z,8.14
2018-11-27T13:06:07.182Z,7.84
2018-11-27T13:10:17.218Z,7.61
2018-11-27T13:14:26.779Z,7.64
2018-11-27T13:18:39.241Z,7.78
2018-11-27T13:22:47.242Z,7.61
2018-11-27T13:27:01.114Z,7.34
2018-11-27T13:31:16.238Z,7.15
2018-11-27T13:35:26.997Z,7.07
2018-11-27T13:39:40.596Z,6.99
2018-11-27T13:43:54.181Z,7.03
2018-11-27T13:48:08.517Z,6.97
2018-11-27T13:52:21.130Z,6.98
2018-11-27T13:56:30.863Z,7.07
2018-11-27T14:00:39.718Z,7.02
2018-11-27T14:04:52.344Z,6.93
2018-11-27T14:09:03.144Z,6.97
2018-11-27T14:13:11.028Z,6.92
2018-11-27T14:17:21.280Z,6.78
2018-11-27T14:21:31.210Z,6.84
2018-11-27T14:25:47.571Z,6.85
2018-11-27T14:30:00.177Z,6.92
2018-11-27T14:34:16.617Z,7.01
2018-11-27T14:38:31.510Z,7.03
2018-11-27T14:42:40.508Z,6.98
2018-11-27T14:46:50.257Z,6.84
2018-11-27T14:51:07.788Z,6.82
2018-11-27T14:55:19.717Z,6.85
2018-11-27T14:59:35.246Z,6.86
2018-11-27T15:03:45.327Z,6.85
2018-11-27T15:08:06.118Z,6.82
2018-11-27T15:12:21.319Z,6.74
2018-11-27T15:16:32.428Z,6.71
2018-11-27T15:20:46.672Z,6.60
2018-11-27T15:24:58.420Z,6.63
2018-11-27T15:29:10.347Z,6.55
2018-11-27T15:33:25.712Z,6.53
2018-11-27T15:37:35.693Z,6.48
2018-11-27T15:41:45.452Z,6.45
2018-11-27T15:45:55.632Z,6.41
2018-11-27T15:50:09.804Z,6.36
2018-11-27T15:54:22.109Z,6.32
2018-11-27T15:58:31.983Z,6.37
2018-11-27T16:02:44.593Z,6.35
2018-11-27T16:06:53.166Z,6.35
2018-11-27T16:11:09.841Z,6.37
2018-11-27T16:15:22.736Z,6.43
2018-11-27T16:19:33.428Z,6.46
2018-11-27T16:23:47.055Z,6.48
2018-11-27T16:27:53.462Z,6.45
2018-11-27T16:32:05.079Z,6.45
2018-11-27T16:36:17.768Z,6.46
2018-11-27T16:40:52.848Z,6.36
2018-11-27T16:45:01.055Z,6.29
2018-11-27T16:49:09.417Z,6.27
2018-11-27T16:53:19.242Z,6.25
2018-11-27T16:57:36.230Z,6.21
2018-11-27T17:01:47.081Z,5.98
2018-11-27T17:05:58.636Z,5.95
2018-11-27T17:10:12.114Z,5.88
2018-11-27T17:14:29.157Z,5.82
2018-11-27T17:18:44.776Z,5.64
2018-11-27T17:22:58.288Z,5.50
2018-11-27T17:27:12.613Z,5.37
2018-11-27T17:31:24.460Z,5.30
2018-11-27T17:35:34.950Z,5.22
2018-11-27T17:39:47.500Z,5.17
2018-11-27T17:43:56.629Z,5.02
2018-11-27T17:48:08.891Z,4.94
2018-11-27T17:53:21.039Z,4.86
2018-11-27T17:57:29.600Z,4.70
2018-11-27T18:01:36.873Z,4.59
2018-11-27T18:05:51.326Z,4.51
2018-11-27T18:09:59.464Z,4.50
2018-11-27T18:14:07.786Z,4.46
2018-11-27T18:18:19.856Z,4.39
2018-11-27T18:22:29.820Z,4.32
2018-11-27T18:26:40.076Z,4.29
2018-11-27T18:30:49.958Z,4.27
2018-11-27T18:35:00.887Z,4.22
2018-11-27T18:39:15.319Z,4.17
2018-11-27T18:43:28.691Z,4.03
2018-11-27T18:47:39.647Z,4.02
2018-11-27T18:51:55.825Z,4.00
2018-11-27T18:56:16.582Z,3.93
2018-11-27T19:00:40.015Z,3.92
2018-11-27T19:04:49.876Z,3.81
2018-11-27T19:09:03.270Z,3.70
2018-11-27T19:13:11.521Z,3.64
2018-11-27T19:17:22.645Z,3.65
2018-11-27T19:21:30.923Z,3.60
2018-11-27T19:25:43.463Z,3.55
2018-11-27T19:29:55.086Z,3.51
2018-11-27T19:34:06.704Z,3.36
2018-11-27T19:38:22.711Z,3.39
2018-11-27T19:42:30.174Z,3.34
2018-11-27T19:46:41.794Z,3.26
2018-11-27T19:50:55.533Z,3.30
2018-11-27T19:55:08.917Z,3.27
2018-11-27T19:59:17.766Z,3.23
2018-11-27T20:03:32.191Z,3.16
2018-11-27T20:07:46.920Z,3.21
2018-11-27T20:12:02.118Z,3.34
2018-11-27T20:16:13.134Z,3.41
2018-11-27T20:20:25.839Z,3.37
2018-11-27T20:24:41.190Z,3.42
2018-11-27T20:28:56.471Z,3.33
2018-11-27T20:33:10.407Z,3.31
2018-11-27T20:37:21.457Z,3.19
2018-11-27T20:41:34.160Z,3.09
2018-11-27T20:45:48.657Z,3.04
2018-11-27T20:49:59.486Z,2.98
2018-11-27T20:54:13.170Z,2.92
2018-11-27T20:58:28.617Z,2.83
2018-11-27T21:02:42.036Z,2.86
2018-11-27T21:06:54.473Z,2.85
2018-11-27T21:11:09.036Z,2.84
2018-11-27T21:15:21.239Z,2.78
2018-11-27T21:19:33.547Z,2.72
2018-11-27T21:23:51.282Z,2.67
2018-11-27T21:28:04.170Z,2.67
2018-11-27T21:32:17.745Z,2.71
2018-11-27T21:36:30.369Z,2.71
2018-11-27T21:40:40.373Z,2.93
2018-11-27T21:44:50.885Z,3.15
2018-11-27T21:49:02.220Z,3.11
2018-11-27T21:53:13.020Z,3.26
2018-11-27T21:57:23.715Z,3.17
2018-11-27T22:01:36.385Z,3.21
2018-11-27T22:05:50.312Z,3.38
2018-11-27T22:10:02.639Z,3.39
2018-11-27T22:14:14.341Z,3.52
2018-11-27T22:18:24.933Z,3.44
2018-11-27T22:22:39.365Z,3.45
2018-11-27T22:26:47.755Z,3.51
2018-11-27T22:31:01.300Z,3.55
2018-11-27T22:35:13.565Z,3.52
2018-11-27T22:39:25.993Z,3.52
2018-11-27T22:43:35.312Z,3.48
2018-11-27T22:47:45.104Z,3.49
2018-11-27T22:51:56.998Z,3.38
2018-11-27T22:56:10.452Z,3.24
2018-11-27T23:00:44.168Z,3.15
2018-11-27T23:04:57.265Z,3.08
2018-11-27T23:09:07.569Z,3.19
2018-11-27T23:13:16.073Z,3.24
2018-11-27T23:17:31.145Z,3.26
2018-11-27T23:21:42.879Z,3.33
2018-11-27T23:25:53.060Z,3.36
2018-11-27T23:30:04.680Z,3.35
2018-11-27T23:34:16.587Z,3.28
2018-11-27T23:38:31.733Z,3.05
2018-11-27T23:42:41.330Z,3.05
2018-11-27T23:46:52.494Z,3.06
2018-11-27T23:51:03.269Z,3.05
2018-11-27T23:55:15.250Z,3.04
2018-11-27T23:59:26.938Z,3.03
